Institutional Ownership

Institutional Ownership

Ownership > 100%

Ownership Information
Shares Outstanding
33,676,921
Institutional Ownership (%)
38.03
Insider Ownership (%)
28.02
Ownership Activity - Total Positions
Company Shares % Out Value ($) Reported Change
GRQ Consultants, Inc. 401K Plan 5,269,167 15.65 6,112,234 12/20/2018 75,599
Donald Smith & Co. Inc. 3,257,930 9.67 3,779,199 12/31/2018 6,000
Ruffer LLP 1,817,473 5.40 2,108,269 12/31/2018 5,196
K2 & Associates Investment Management Inc. 843,102 2.50 977,998 12/31/2018 843,102
Cambridge Investment Research Advisors Inc. 407,740 1.21 472,978 12/31/2018 (89,700)
Vanguard Group Inc. 387,246 1.15 449,205 12/31/2018 (330,886)
FNY Investment Advisers LLC 199,737 0.59 231,695 12/31/2018 199,737
Renaissance Technologies LLC 188,360 0.56 218,498 12/31/2018 66,174
Atg Capital LLC 174,999 0.52 202,999 8/17/2018 0
GRQ Consultants Inc. 130,892 0.39 151,835 12/20/2018 9,392
Geode Capital Management LLC 117,782 0.35 136,627 12/31/2018 0
OTP Alapkezelő Zrt. 89,964 0.27 104,358 6/29/2018 0
GRQ Consultants, Inc., Defined Benefit Pension Plan 89,147 0.26 103,411 12/20/2018 (1)
Wells Fargo & Co. 84,708 0.25 98,261 12/31/2018 1,035
BlackRock Inc. 71,448 0.21 82,880 12/31/2018 34
Horizon Kinetics LLC 69,842 0.21 81,017 12/31/2018 0
Northern Trust Global Investments 54,313 0.16 63,003 12/31/2018 0
Dr. Bost & Compagnon Vermogensberatungs Gmbh & Co. Kg 40,000 0.12 46,400 2/28/2019 30,000
U.S. Bancorp Asset Management Inc. 19,981 0.06 23,178 12/31/2018 0
Susquehanna International Group LLP 12,124 0.04 14,064 12/31/2018 (40,207)
Displaying 1 to 20 (of 43)